createdAt,value
2023-06-13T00:11:00.796Z,95765.94
2023-06-13T00:26:02.435Z,95758.06
2023-06-13T00:41:04.249Z,95759.50
2023-06-13T00:56:08.284Z,95741.34
2023-06-13T01:11:11.476Z,95732.09
2023-06-13T01:26:15.999Z,95737.31
2023-06-13T01:41:17.718Z,95715.69
2023-06-13T01:56:21.285Z,95714.44
2023-06-13T02:11:22.940Z,95716.88
2023-06-13T02:26:25.142Z,95698.47
2023-06-13T02:41:27.746Z,95699.91
2023-06-13T02:56:30.446Z,95706.75
2023-06-13T03:11:32.208Z,95702.88
2023-06-13T03:26:39.377Z,95712.34
2023-06-13T03:41:44.469Z,95711.50
2023-06-13T03:56:46.223Z,95723.53
2023-06-13T04:11:47.974Z,95730.44
2023-06-13T04:26:50.392Z,95734.78
2023-06-13T04:41:57.692Z,95743.59
2023-06-13T04:56:59.377Z,95743.00
2023-06-13T05:12:01.441Z,95740.16
2023-06-13T05:27:03.165Z,95738.69
2023-06-13T05:42:04.903Z,95745.59
2023-06-13T05:57:06.849Z,95741.25
2023-06-13T06:12:08.843Z,95733.53
2023-06-13T06:27:12.477Z,95746.16
2023-06-13T06:42:14.170Z,95741.59
2023-06-13T06:57:28.594Z,95750.28
2023-06-13T07:12:30.270Z,95746.72
2023-06-13T07:27:32.074Z,95754.50
2023-06-13T07:42:33.727Z,95761.22
2023-06-13T07:57:53.655Z,95749.78
2023-06-13T08:12:57.711Z,95748.59
2023-06-13T08:28:00.428Z,95735.88
2023-06-13T08:43:02.420Z,95727.50
2023-06-13T08:58:04.815Z,95723.06
2023-06-13T09:13:07.364Z,95712.84
2023-06-13T09:28:09.759Z,95716.09
2023-06-13T09:43:11.351Z,95713.88
2023-06-13T09:58:30.887Z,95700.91
2023-06-13T10:13:34.516Z,95697.09
2023-06-13T10:28:37.083Z,95673.22
2023-06-13T10:43:39.411Z,95673.50
2023-06-13T10:58:41.837Z,95666.81
2023-06-13T11:13:44.159Z,95657.81
2023-06-13T11:28:46.108Z,95653.25
2023-06-13T11:43:49.033Z,95654.34
2023-06-13T11:58:50.752Z,95639.47
2023-06-13T12:13:52.475Z,95623.72
2023-06-13T12:28:57.621Z,95624.53
2023-06-13T12:44:00.454Z,95598.81
2023-06-13T12:59:02.716Z,95584.09
2023-06-13T13:14:04.755Z,95578.22
2023-06-13T13:29:06.507Z,95576.22
2023-06-13T13:44:08.270Z,95551.25
2023-06-13T13:59:10.087Z,95537.16
2023-06-13T14:14:12.036Z,95529.44
2023-06-13T14:29:13.802Z,95514.47
2023-06-13T14:44:15.782Z,95507.47
2023-06-13T14:59:18.338Z,95483.53
2023-06-13T15:14:20.208Z,95485.66
2023-06-13T15:29:21.866Z,95492.59
2023-06-13T15:44:23.502Z,95474.69
2023-06-13T15:59:25.806Z,95485.94
2023-06-13T16:14:27.482Z,95473.94
2023-06-13T16:29:29.218Z,95485.63
2023-06-13T16:44:30.844Z,95476.44
2023-06-13T16:59:32.488Z,95484.38
2023-06-13T17:14:36.989Z,95486.00
2023-06-13T17:29:38.610Z,95491.63
2023-06-13T17:44:40.264Z,95500.13
2023-06-13T17:59:41.961Z,95499.41
2023-06-13T18:14:43.576Z,95498.44
2023-06-13T18:29:45.238Z,95499.34
2023-06-13T18:44:47.010Z,95504.84
2023-06-13T18:59:49.708Z,95522.84
2023-06-13T19:14:51.358Z,95536.22
2023-06-13T19:29:53.027Z,95553.13
2023-06-13T19:44:54.659Z,95561.13
2023-06-13T19:59:56.427Z,95569.66
2023-06-13T20:14:58.131Z,95579.34
2023-06-13T20:30:01.278Z,95583.63
2023-06-13T20:45:09.422Z,95584.44
2023-06-13T21:00:23.669Z,95594.97
2023-06-13T21:15:25.851Z,95607.81
2023-06-13T21:30:27.487Z,95620.97
2023-06-13T21:45:32.488Z,95615.22
2023-06-13T22:00:34.805Z,95599.34
2023-06-13T22:15:36.455Z,95624.28
2023-06-13T22:30:38.073Z,95618.34
2023-06-13T22:45:39.621Z,95615.06
2023-06-13T23:00:41.257Z,95624.72
2023-06-13T23:15:43.510Z,95625.16
